createdAt,value
2018-03-29T00:00:57.793Z,7.78
2018-03-29T00:01:57.857Z,7.78
2018-03-29T00:02:57.919Z,7.77
2018-03-29T00:03:57.844Z,7.73
2018-03-29T00:04:57.778Z,7.72
2018-03-29T00:05:57.808Z,7.72
2018-03-29T00:06:57.811Z,7.69
2018-03-29T00:07:57.798Z,7.7
2018-03-29T00:08:57.813Z,7.69
2018-03-29T00:09:57.873Z,7.69
2018-03-29T00:10:57.800Z,7.63
2018-03-29T00:11:57.814Z,7.65
2018-03-29T00:12:57.829Z,7.65
2018-03-29T00:13:57.851Z,7.66
2018-03-29T00:14:57.786Z,7.65
2018-03-29T00:15:57.811Z,7.64
2018-03-29T00:16:57.826Z,7.64
2018-03-29T00:17:57.805Z,7.64
2018-03-29T00:18:57.792Z,7.63
2018-03-29T00:19:57.860Z,7.6
2018-03-29T00:20:57.803Z,7.59
2018-03-29T00:21:57.813Z,7.59
2018-03-29T00:22:57.803Z,7.59
2018-03-29T00:23:57.798Z,7.57
2018-03-29T00:24:57.809Z,7.6
2018-03-29T00:25:57.818Z,7.58
2018-03-29T00:26:57.798Z,7.58
2018-03-29T00:27:57.790Z,7.55
2018-03-29T00:28:57.844Z,7.54
2018-03-29T00:29:57.804Z,7.53
2018-03-29T00:30:57.854Z,7.57
2018-03-29T00:31:57.803Z,7.54
2018-03-29T00:32:57.810Z,7.54
2018-03-29T00:33:57.863Z,7.52
2018-03-29T00:34:57.797Z,7.48
2018-03-29T00:35:57.995Z,7.48
2018-03-29T00:36:57.826Z,7.47
2018-03-29T00:37:57.800Z,7.47
2018-03-29T00:38:57.790Z,7.42
2018-03-29T00:39:57.840Z,7.45
2018-03-29T00:40:57.835Z,7.42
2018-03-29T00:41:57.786Z,7.42
2018-03-29T00:42:57.808Z,7.43
2018-03-29T00:43:57.825Z,7.43
2018-03-29T00:44:57.805Z,7.45
2018-03-29T00:45:57.795Z,7.45
2018-03-29T00:46:57.810Z,7.42
2018-03-29T00:47:57.823Z,7.43
2018-03-29T00:48:57.816Z,7.41
2018-03-29T00:49:57.847Z,7.41
2018-03-29T00:50:57.809Z,7.4
2018-03-29T00:51:57.789Z,7.39
2018-03-29T00:52:57.797Z,7.39
2018-03-29T00:53:57.836Z,7.37
2018-03-29T00:54:57.830Z,7.36
2018-03-29T00:55:57.785Z,7.35
2018-03-29T00:56:57.796Z,7.35
2018-03-29T00:57:57.806Z,7.36
2018-03-29T00:58:57.799Z,7.34
2018-03-29T00:59:57.860Z,7.35
2018-03-29T01:00:57.830Z,7.33
2018-03-29T01:01:57.821Z,7.33
2018-03-29T01:02:57.846Z,7.31
2018-03-29T01:03:58.292Z,7.33
2018-03-29T01:04:57.915Z,7.31
2018-03-29T01:05:57.804Z,7.33
2018-03-29T01:06:57.806Z,7.3
2018-03-29T01:07:57.814Z,7.28
2018-03-29T01:08:57.847Z,7.26
2018-03-29T01:09:57.828Z,7.23
2018-03-29T01:10:57.795Z,7.22
2018-03-29T01:11:57.832Z,7.21
2018-03-29T01:12:57.824Z,7.19
2018-03-29T01:13:57.818Z,7.22
2018-03-29T01:14:57.825Z,7.18
2018-03-29T01:15:57.820Z,7.2
2018-03-29T01:16:57.812Z,7.21
2018-03-29T01:17:57.851Z,7.22
2018-03-29T01:18:57.882Z,7.17
2018-03-29T01:19:57.861Z,7.2
2018-03-29T01:20:57.835Z,7.18
2018-03-29T01:21:57.812Z,7.21
2018-03-29T01:22:57.817Z,7.21
2018-03-29T01:23:57.816Z,7.21
2018-03-29T01:24:57.803Z,7.19
2018-03-29T01:25:57.844Z,7.16
2018-03-29T01:26:57.825Z,7.16
2018-03-29T01:27:57.812Z,7.13
2018-03-29T01:28:57.851Z,7.11
2018-03-29T01:29:57.879Z,7.13
2018-03-29T01:30:57.844Z,7.11
2018-03-29T01:31:57.843Z,7.11
2018-03-29T01:32:57.832Z,7.12
2018-03-29T01:33:57.833Z,7.1
2018-03-29T01:34:57.866Z,7.12
2018-03-29T01:35:57.895Z,7.1
2018-03-29T01:36:57.950Z,7.1
2018-03-29T01:37:57.821Z,7.08
2018-03-29T01:38:57.830Z,7.09
2018-03-29T01:39:57.875Z,7.09
2018-03-29T01:40:57.827Z,7.07
2018-03-29T01:41:57.836Z,7.08
2018-03-29T01:42:57.845Z,7.08
2018-03-29T01:43:58.106Z,7.08
2018-03-29T01:44:57.829Z,7.07
2018-03-29T01:45:57.854Z,7.06
2018-03-29T01:46:57.831Z,7.04
2018-03-29T01:47:57.838Z,7.03
2018-03-29T01:48:57.837Z,7.02
2018-03-29T01:49:57.853Z,7.01
2018-03-29T01:50:57.807Z,7.01
2018-03-29T01:51:57.821Z,7.02
2018-03-29T01:52:57.848Z,7.02
2018-03-29T01:53:58.113Z,7.02
2018-03-29T01:54:57.825Z,7.02
2018-03-29T01:55:57.867Z,7.02
2018-03-29T01:56:57.836Z,7.01
2018-03-29T01:57:57.831Z,6.99
2018-03-29T01:58:58.177Z,7.01
2018-03-29T01:59:57.910Z,7.01
2018-03-29T02:00:58.241Z,7.02
2018-03-29T02:01:57.864Z,7.01
2018-03-29T02:02:57.833Z,7.01
2018-03-29T02:03:57.903Z,7
2018-03-29T02:04:57.879Z,6.96
2018-03-29T02:05:57.858Z,6.97
2018-03-29T02:06:57.926Z,6.97
2018-03-29T02:07:57.842Z,7.01
2018-03-29T02:08:57.825Z,7.02
2018-03-29T02:09:57.866Z,7.03
2018-03-29T02:10:57.880Z,7.02
2018-03-29T02:11:57.823Z,6.99
2018-03-29T02:12:57.886Z,7
2018-03-29T02:13:57.828Z,6.99
2018-03-29T02:14:57.838Z,7.02
2018-03-29T02:15:57.824Z,7.02
2018-03-29T02:16:57.852Z,7.02
2018-03-29T02:17:57.826Z,6.99
2018-03-29T02:18:57.872Z,6.99
2018-03-29T02:19:57.833Z,6.96
2018-03-29T02:20:57.864Z,6.95
2018-03-29T02:21:57.824Z,6.95
2018-03-29T02:22:57.843Z,6.91
2018-03-29T02:23:57.827Z,6.92
2018-03-29T02:24:57.876Z,6.9
2018-03-29T02:25:57.848Z,6.91
2018-03-29T02:26:57.835Z,6.89
2018-03-29T02:27:57.833Z,6.88
2018-03-29T02:28:57.826Z,6.85
2018-03-29T02:29:57.860Z,6.85
2018-03-29T02:30:57.878Z,6.88
2018-03-29T02:31:57.870Z,6.88
2018-03-29T02:32:57.886Z,6.92
2018-03-29T02:33:57.842Z,6.9
2018-03-29T02:34:57.879Z,6.89
2018-03-29T02:35:57.932Z,6.87
2018-03-29T02:36:57.871Z,6.89
2018-03-29T02:37:57.931Z,6.88
2018-03-29T02:38:57.879Z,6.86
2018-03-29T02:39:57.908Z,6.88
2018-03-29T02:40:57.867Z,6.85
2018-03-29T02:41:57.873Z,6.87
2018-03-29T02:42:57.872Z,6.84
2018-03-29T02:43:57.843Z,6.83
2018-03-29T02:44:57.885Z,6.83
2018-03-29T02:45:57.893Z,6.84
2018-03-29T02:46:57.867Z,6.83
2018-03-29T02:47:57.896Z,6.86
2018-03-29T02:48:57.890Z,6.84
2018-03-29T02:49:57.890Z,6.82
2018-03-29T02:50:57.853Z,6.79
2018-03-29T02:51:57.870Z,6.83
2018-03-29T02:52:57.882Z,6.8
2018-03-29T02:53:57.854Z,6.77
2018-03-29T02:54:57.871Z,6.79
2018-03-29T02:55:57.894Z,6.81
2018-03-29T02:56:57.862Z,6.79
2018-03-29T02:57:57.832Z,6.81
2018-03-29T02:58:57.900Z,6.81
2018-03-29T02:59:57.924Z,6.8
2018-03-29T03:00:57.970Z,6.78
2018-03-29T03:01:57.866Z,6.74
2018-03-29T03:02:57.906Z,6.76
2018-03-29T03:03:57.874Z,6.75
2018-03-29T03:04:57.857Z,6.78
2018-03-29T03:05:57.869Z,6.78
2018-03-29T03:06:57.887Z,6.77
2018-03-29T03:07:57.873Z,6.79
2018-03-29T03:08:57.928Z,6.77
2018-03-29T03:09:57.913Z,6.8
2018-03-29T03:10:57.848Z,6.83
2018-03-29T03:11:58.512Z,6.81
2018-03-29T03:12:57.864Z,6.81
2018-03-29T03:13:57.846Z,6.82
2018-03-29T03:14:57.846Z,6.82
2018-03-29T03:15:57.856Z,6.79
2018-03-29T03:16:57.877Z,6.81
2018-03-29T03:17:57.857Z,6.77
2018-03-29T03:18:57.851Z,6.77
2018-03-29T03:19:57.911Z,6.76
2018-03-29T03:20:57.882Z,6.77
2018-03-29T03:21:57.853Z,6.77
2018-03-29T03:22:57.870Z,6.76
2018-03-29T03:23:57.877Z,6.78
2018-03-29T03:24:57.884Z,6.8
2018-03-29T03:25:57.858Z,6.79
2018-03-29T03:26:57.875Z,6.8
2018-03-29T03:27:57.879Z,6.78
2018-03-29T03:28:57.956Z,6.79
2018-03-29T03:29:57.944Z,6.83
2018-03-29T03:30:57.935Z,6.79
2018-03-29T03:31:57.856Z,6.81
2018-03-29T03:32:57.872Z,6.78
2018-03-29T03:33:57.865Z,6.75
2018-03-29T03:34:57.856Z,6.75
2018-03-29T03:35:58.055Z,6.73
2018-03-29T03:36:57.864Z,6.71
2018-03-29T03:37:57.919Z,6.72
2018-03-29T03:38:57.913Z,6.74
2018-03-29T03:39:57.914Z,6.73
2018-03-29T03:40:57.916Z,6.71
2018-03-29T03:41:57.856Z,6.72
2018-03-29T03:42:57.839Z,6.73
2018-03-29T03:43:57.872Z,6.7
2018-03-29T03:44:57.850Z,6.69
2018-03-29T03:45:57.871Z,6.71
2018-03-29T03:46:57.881Z,6.7
2018-03-29T03:47:57.885Z,6.69
2018-03-29T03:48:57.903Z,6.72
2018-03-29T03:49:57.862Z,6.7
2018-03-29T03:50:57.862Z,6.68
2018-03-29T03:51:57.856Z,6.7
2018-03-29T03:52:57.898Z,6.7
2018-03-29T03:53:57.857Z,6.68
2018-03-29T03:54:57.872Z,6.69
2018-03-29T03:55:57.868Z,6.71
2018-03-29T03:56:57.847Z,6.7
2018-03-29T03:57:57.853Z,6.71
2018-03-29T03:58:57.854Z,6.7
2018-03-29T03:59:57.873Z,6.71
2018-03-29T04:00:57.869Z,6.71
2018-03-29T04:01:57.878Z,6.71
2018-03-29T04:02:57.871Z,6.76
2018-03-29T04:03:57.862Z,6.74
2018-03-29T04:04:57.888Z,6.72
2018-03-29T04:05:57.868Z,6.71
2018-03-29T04:06:57.870Z,6.72
2018-03-29T04:07:57.865Z,6.74
2018-03-29T04:08:57.863Z,6.71
2018-03-29T04:09:57.892Z,6.69
2018-03-29T04:10:57.960Z,6.71
2018-03-29T04:11:58.240Z,6.7
2018-03-29T04:12:57.874Z,6.72
2018-03-29T04:13:57.878Z,6.67
2018-03-29T04:14:57.876Z,6.64
2018-03-29T04:15:57.913Z,6.66
2018-03-29T04:16:58.053Z,6.67
2018-03-29T04:17:57.863Z,6.68
2018-03-29T04:18:57.879Z,6.72
2018-03-29T04:19:58.264Z,6.69
2018-03-29T04:20:57.874Z,6.71
2018-03-29T04:21:57.903Z,6.71
2018-03-29T04:22:57.887Z,6.72
2018-03-29T04:23:57.890Z,6.71
2018-03-29T04:24:57.900Z,6.73
2018-03-29T04:25:57.896Z,6.75
2018-03-29T04:26:57.876Z,6.78
2018-03-29T04:27:57.923Z,6.75
2018-03-29T04:28:57.890Z,6.74
2018-03-29T04:29:57.911Z,6.73
2018-03-29T04:30:57.904Z,6.72
2018-03-29T04:31:57.886Z,6.74
2018-03-29T04:32:57.914Z,6.71
2018-03-29T04:33:57.888Z,6.72
2018-03-29T04:34:57.883Z,6.72
2018-03-29T04:35:57.900Z,6.7
2018-03-29T04:36:57.911Z,6.69
2018-03-29T04:37:57.870Z,6.7
2018-03-29T04:38:57.900Z,6.69
2018-03-29T04:39:57.945Z,6.66
2018-03-29T04:40:57.876Z,6.66
2018-03-29T04:41:57.965Z,6.64
2018-03-29T04:42:57.916Z,6.64
2018-03-29T04:43:57.905Z,6.64
2018-03-29T04:44:57.889Z,6.61
2018-03-29T04:45:57.882Z,6.63
2018-03-29T04:46:57.972Z,6.6
2018-03-29T04:47:57.888Z,6.57
2018-03-29T04:48:57.909Z,6.55
2018-03-29T04:49:57.921Z,6.54
2018-03-29T04:50:57.960Z,6.54
2018-03-29T04:51:57.908Z,6.5
2018-03-29T04:52:57.893Z,6.48
2018-03-29T04:53:57.891Z,6.52
2018-03-29T04:54:57.896Z,6.54
2018-03-29T04:55:57.901Z,6.51
2018-03-29T04:56:57.921Z,6.51
2018-03-29T04:57:57.966Z,6.49
2018-03-29T04:58:57.916Z,6.49
2018-03-29T04:59:57.957Z,6.48
2018-03-29T05:00:57.899Z,6.48
2018-03-29T05:01:57.884Z,6.49
2018-03-29T05:02:57.964Z,6.47
2018-03-29T05:03:57.904Z,6.45
2018-03-29T05:04:57.901Z,6.45
2018-03-29T05:05:57.899Z,6.43
2018-03-29T05:06:57.896Z,6.4
2018-03-29T05:07:57.974Z,6.38
2018-03-29T05:08:57.904Z,6.41
2018-03-29T05:09:57.917Z,6.39
2018-03-29T05:10:57.896Z,6.4
2018-03-29T05:11:57.924Z,6.36
2018-03-29T05:12:57.994Z,6.37
2018-03-29T05:13:57.919Z,6.38
2018-03-29T05:14:57.924Z,6.41
2018-03-29T05:15:57.912Z,6.4
2018-03-29T05:16:57.916Z,6.4
2018-03-29T05:17:57.907Z,6.4
2018-03-29T05:18:57.908Z,6.4
2018-03-29T05:19:57.910Z,6.38
2018-03-29T05:20:58.716Z,6.39
2018-03-29T05:21:57.916Z,6.39
2018-03-29T05:22:57.927Z,6.39
2018-03-29T05:23:57.905Z,6.4
2018-03-29T05:24:57.943Z,6.36
2018-03-29T05:25:57.932Z,6.33
2018-03-29T05:26:57.898Z,6.34
2018-03-29T05:27:57.931Z,6.36
2018-03-29T05:28:57.919Z,6.39
2018-03-29T05:29:57.914Z,6.35
2018-03-29T05:30:57.916Z,6.38
2018-03-29T05:31:58.293Z,6.35
2018-03-29T05:32:57.925Z,6.37
2018-03-29T05:33:57.913Z,6.39
2018-03-29T05:34:57.934Z,6.39
2018-03-29T05:35:57.918Z,6.37
2018-03-29T05:36:57.938Z,6.35
2018-03-29T05:37:57.947Z,6.34
2018-03-29T05:38:57.906Z,6.38
2018-03-29T05:39:57.958Z,6.39
2018-03-29T05:40:57.909Z,6.34
2018-03-29T05:41:57.943Z,6.34
2018-03-29T05:42:57.922Z,6.35
2018-03-29T05:43:57.961Z,6.33
2018-03-29T05:44:57.942Z,6.34
2018-03-29T05:45:57.935Z,6.35
2018-03-29T05:46:58.283Z,6.35
2018-03-29T05:47:57.939Z,6.37
2018-03-29T05:48:57.937Z,6.39
2018-03-29T05:49:57.934Z,6.38
2018-03-29T05:50:57.918Z,6.39
2018-03-29T05:51:58.138Z,6.4
2018-03-29T05:52:57.948Z,6.4
2018-03-29T05:53:58.155Z,6.39
2018-03-29T05:54:57.909Z,6.36
2018-03-29T05:55:57.923Z,6.38
2018-03-29T05:56:57.958Z,6.36
2018-03-29T05:57:57.928Z,6.34
2018-03-29T05:58:57.955Z,6.34
2018-03-29T05:59:57.993Z,6.38
2018-03-29T06:00:57.926Z,6.38
2018-03-29T06:01:58.017Z,6.37
2018-03-29T06:02:58.077Z,6.43
2018-03-29T06:03:57.937Z,6.41
2018-03-29T06:04:57.959Z,6.42
2018-03-29T06:05:57.910Z,6.42
2018-03-29T06:06:57.970Z,6.43
2018-03-29T06:07:57.971Z,6.43
2018-03-29T06:08:57.936Z,6.41
2018-03-29T06:09:57.989Z,6.4
2018-03-29T06:10:58.212Z,6.41
2018-03-29T06:11:58.092Z,6.42
2018-03-29T06:12:57.928Z,6.44
2018-03-29T06:13:57.935Z,6.43
2018-03-29T06:14:57.982Z,6.44
2018-03-29T06:15:57.982Z,6.46
2018-03-29T06:16:57.963Z,6.43
2018-03-29T06:17:57.906Z,6.42
2018-03-29T06:18:57.981Z,6.4
2018-03-29T06:19:58.094Z,6.42
2018-03-29T06:20:57.939Z,6.42
2018-03-29T06:21:58.011Z,6.41
2018-03-29T06:22:57.962Z,6.44
2018-03-29T06:23:58.970Z,6.44
2018-03-29T06:24:57.921Z,6.48
2018-03-29T06:25:57.932Z,6.48
2018-03-29T06:26:58.937Z,6.51
2018-03-29T06:27:58.066Z,6.51
2018-03-29T06:28:57.945Z,6.52
2018-03-29T06:29:58.021Z,6.53
2018-03-29T06:30:57.987Z,6.52
2018-03-29T06:31:57.980Z,6.53
2018-03-29T06:32:58.786Z,6.53
2018-03-29T06:33:57.946Z,6.57
2018-03-29T06:34:57.920Z,6.56
2018-03-29T06:35:57.916Z,6.6
2018-03-29T06:36:57.923Z,6.6
2018-03-29T06:37:57.969Z,6.61
2018-03-29T06:38:57.934Z,6.62
2018-03-29T06:39:57.954Z,6.65
2018-03-29T06:40:57.942Z,6.66
2018-03-29T06:41:57.985Z,6.68
2018-03-29T06:43:04.490Z,6.69
2018-03-29T06:43:58.012Z,6.68
2018-03-29T06:44:57.970Z,6.68
2018-03-29T06:45:57.970Z,6.66
2018-03-29T06:46:58.326Z,6.69
2018-03-29T06:47:57.940Z,6.72
2018-03-29T06:48:57.958Z,6.71
2018-03-29T06:49:57.937Z,6.68
2018-03-29T06:50:57.927Z,6.67
2018-03-29T06:51:57.936Z,6.69
2018-03-29T06:52:58.246Z,6.71
2018-03-29T06:53:57.939Z,6.71
2018-03-29T06:54:57.992Z,6.75
2018-03-29T06:55:57.916Z,6.72
2018-03-29T06:56:57.928Z,6.76
2018-03-29T06:57:57.941Z,6.74
2018-03-29T06:58:57.933Z,6.78
2018-03-29T06:59:57.919Z,6.79
2018-03-29T07:00:58.517Z,6.81
2018-03-29T07:01:57.919Z,6.79
2018-03-29T07:02:57.964Z,6.8
2018-03-29T07:03:57.958Z,6.82
2018-03-29T07:04:57.952Z,6.79
2018-03-29T07:05:57.971Z,6.8
2018-03-29T07:06:57.958Z,6.79
2018-03-29T07:07:57.947Z,6.78
2018-03-29T07:08:57.937Z,6.8
2018-03-29T07:09:57.980Z,6.81
2018-03-29T07:10:57.948Z,6.82
2018-03-29T07:11:58.017Z,6.79
2018-03-29T07:12:57.939Z,6.82
2018-03-29T07:13:57.952Z,6.8
2018-03-29T07:14:58.409Z,6.83
2018-03-29T07:15:57.940Z,6.83
2018-03-29T07:16:58.049Z,6.84
2018-03-29T07:17:57.946Z,6.78
2018-03-29T07:18:57.962Z,6.78
2018-03-29T07:19:57.953Z,6.79
2018-03-29T07:20:57.932Z,6.8
2018-03-29T07:21:57.939Z,6.82
2018-03-29T07:22:57.964Z,6.84
2018-03-29T07:23:57.955Z,6.84
2018-03-29T07:24:57.938Z,6.85
2018-03-29T07:25:57.974Z,6.87
2018-03-29T07:26:57.993Z,6.88
2018-03-29T07:27:57.932Z,6.84
2018-03-29T07:28:57.948Z,6.84
2018-03-29T07:29:57.973Z,6.84
2018-03-29T07:30:57.966Z,6.86
2018-03-29T07:31:57.969Z,6.89
2018-03-29T07:32:57.984Z,6.92
2018-03-29T07:33:58.613Z,6.92
2018-03-29T07:34:58.358Z,6.94
2018-03-29T07:35:57.960Z,6.97
2018-03-29T07:36:58.076Z,7.01
2018-03-29T07:37:57.959Z,7.05
2018-03-29T07:38:57.940Z,7.08
2018-03-29T07:39:57.994Z,7.08
2018-03-29T07:40:57.981Z,7.15
2018-03-29T07:41:57.959Z,7.15
2018-03-29T07:42:57.942Z,7.16
2018-03-29T07:43:57.965Z,7.2
2018-03-29T07:44:57.937Z,7.22
2018-03-29T07:45:57.970Z,7.26
2018-03-29T07:46:57.960Z,7.3
2018-03-29T07:47:58.037Z,7.32
2018-03-29T07:48:58.225Z,7.36
2018-03-29T07:49:58.001Z,7.33
2018-03-29T07:50:57.971Z,7.39
2018-03-29T07:51:57.967Z,7.4
2018-03-29T07:52:57.939Z,7.49
2018-03-29T07:53:57.987Z,7.51
2018-03-29T07:54:57.978Z,7.55
2018-03-29T07:55:57.937Z,7.59
2018-03-29T07:56:57.970Z,7.55
2018-03-29T07:57:58.329Z,7.57
2018-03-29T07:58:58.007Z,7.6
2018-03-29T07:59:57.962Z,7.63
2018-03-29T08:00:57.953Z,7.63
2018-03-29T08:01:57.926Z,7.63
2018-03-29T08:02:57.956Z,7.61
2018-03-29T08:03:57.964Z,7.52
2018-03-29T08:04:57.936Z,7.48
2018-03-29T08:05:57.960Z,7.48
2018-03-29T08:06:57.951Z,7.51
2018-03-29T08:07:57.955Z,7.49
2018-03-29T08:08:57.946Z,7.48
2018-03-29T08:09:57.987Z,7.44
2018-03-29T08:10:57.950Z,7.43
2018-03-29T08:11:57.958Z,7.41
2018-03-29T08:12:57.936Z,7.4
2018-03-29T08:13:57.963Z,7.42
2018-03-29T08:14:58.017Z,7.38
2018-03-29T08:15:57.929Z,7.38
2018-03-29T08:16:57.952Z,7.34
2018-03-29T08:17:57.942Z,7.34
2018-03-29T08:18:58.092Z,7.38
2018-03-29T08:19:57.944Z,7.39
2018-03-29T08:20:58.044Z,7.43
2018-03-29T08:21:57.974Z,7.43
2018-03-29T08:22:57.985Z,7.44
2018-03-29T08:23:57.969Z,7.44
2018-03-29T08:24:57.965Z,7.46
2018-03-29T08:25:57.975Z,7.47
2018-03-29T08:26:57.969Z,7.49
2018-03-29T08:27:57.976Z,7.51
2018-03-29T08:28:58.037Z,7.49
2018-03-29T08:29:57.966Z,7.48
2018-03-29T08:30:57.961Z,7.47
2018-03-29T08:31:57.979Z,7.46
2018-03-29T08:32:57.961Z,7.47
2018-03-29T08:33:57.979Z,7.48
2018-03-29T08:34:57.955Z,7.49
2018-03-29T08:35:57.957Z,7.48
2018-03-29T08:36:57.951Z,7.48
2018-03-29T08:37:57.955Z,7.48
2018-03-29T08:38:57.968Z,7.48
2018-03-29T08:39:58.068Z,7.47
2018-03-29T08:40:58.005Z,7.48
2018-03-29T08:41:57.991Z,7.48
2018-03-29T08:42:57.973Z,7.44
2018-03-29T08:43:58.003Z,7.45
2018-03-29T08:44:57.955Z,7.46
2018-03-29T08:45:58.164Z,7.49
2018-03-29T08:46:58.093Z,7.47
2018-03-29T08:47:58.560Z,7.46
2018-03-29T08:48:58.086Z,7.48
2018-03-29T08:49:58.059Z,7.49
2018-03-29T08:50:57.948Z,7.49
2018-03-29T08:51:57.947Z,7.47
2018-03-29T08:52:57.963Z,7.48
2018-03-29T08:53:58.000Z,7.53
2018-03-29T08:54:57.961Z,7.52
2018-03-29T08:55:57.977Z,7.53
2018-03-29T08:56:57.962Z,7.54
2018-03-29T08:57:57.977Z,7.59
2018-03-29T08:58:57.979Z,7.58
2018-03-29T08:59:57.973Z,7.61
2018-03-29T09:00:57.997Z,7.63
2018-03-29T09:01:57.987Z,7.64
2018-03-29T09:02:58.035Z,7.65
2018-03-29T09:03:57.994Z,7.66
2018-03-29T09:04:58.106Z,7.67
2018-03-29T09:05:57.956Z,7.72
2018-03-29T09:06:57.974Z,7.71
2018-03-29T09:07:58.027Z,7.71
2018-03-29T09:08:57.969Z,7.72
2018-03-29T09:09:58.042Z,7.78
2018-03-29T09:10:57.986Z,7.77
2018-03-29T09:11:57.976Z,7.78
2018-03-29T09:12:57.972Z,7.79
2018-03-29T09:13:57.982Z,7.78
2018-03-29T09:14:57.982Z,7.84
2018-03-29T09:15:57.997Z,7.88
2018-03-29T09:16:58.097Z,8
2018-03-29T09:17:58.065Z,8.07
2018-03-29T09:18:58.322Z,8.14
2018-03-29T09:19:57.957Z,8.23
2018-03-29T09:20:58.057Z,8.24
2018-03-29T09:21:57.953Z,8.29
2018-03-29T09:22:57.959Z,8.33
2018-03-29T09:23:57.992Z,8.32
2018-03-29T09:24:58.075Z,8.34
2018-03-29T09:25:57.988Z,8.35
2018-03-29T09:26:57.971Z,8.38
2018-03-29T09:27:58.037Z,8.39
2018-03-29T09:28:57.971Z,8.42
2018-03-29T09:29:58.066Z,8.43
2018-03-29T09:30:58.062Z,8.45
2018-03-29T09:31:57.985Z,8.45
2018-03-29T09:32:57.986Z,8.47
2018-03-29T09:33:58.012Z,8.51
2018-03-29T09:34:57.986Z,8.52
2018-03-29T09:35:57.972Z,8.58
2018-03-29T09:36:57.978Z,8.61
2018-03-29T09:37:58.004Z,8.67
2018-03-29T09:38:58.478Z,8.67
2018-03-29T09:39:58.028Z,8.7
2018-03-29T09:40:57.994Z,8.71
2018-03-29T09:41:57.992Z,8.73
2018-03-29T09:42:57.968Z,8.8
2018-03-29T09:43:57.981Z,8.8
2018-03-29T09:44:57.988Z,8.87
2018-03-29T09:45:57.982Z,8.9
2018-03-29T09:46:57.979Z,8.93
2018-03-29T09:47:58.004Z,8.95
2018-03-29T09:48:57.992Z,9.07
2018-03-29T09:49:57.973Z,9.15
2018-03-29T09:50:57.979Z,9.19
2018-03-29T09:51:58.144Z,9.23
2018-03-29T09:52:58.040Z,9.26
2018-03-29T09:53:58.045Z,9.27
2018-03-29T09:54:57.998Z,9.29
2018-03-29T09:55:57.994Z,9.32
2018-03-29T09:56:58.015Z,9.32
2018-03-29T09:57:57.991Z,9.34
2018-03-29T09:58:57.996Z,9.41
2018-03-29T09:59:58.060Z,9.41
2018-03-29T10:00:57.973Z,9.37
2018-03-29T10:01:58.092Z,9.35
2018-03-29T10:02:58.012Z,9.37
2018-03-29T10:03:58.030Z,9.42
2018-03-29T10:04:57.978Z,9.41
2018-03-29T10:05:57.979Z,9.42
2018-03-29T10:06:57.979Z,9.41
2018-03-29T10:07:57.984Z,9.42
2018-03-29T10:08:58.002Z,9.49
2018-03-29T10:09:57.989Z,9.53
2018-03-29T10:10:57.995Z,9.54
2018-03-29T10:11:57.994Z,9.53
2018-03-29T10:12:57.998Z,9.55
2018-03-29T10:13:57.991Z,9.54
2018-03-29T10:14:57.992Z,9.51
2018-03-29T10:15:58.384Z,9.47
2018-03-29T10:16:58.006Z,9.51
2018-03-29T10:17:57.989Z,9.53
2018-03-29T10:18:57.989Z,9.5
2018-03-29T10:19:58.031Z,9.48
2018-03-29T10:20:58.057Z,9.48
2018-03-29T10:21:58.013Z,9.51
2018-03-29T10:22:58.087Z,9.48
2018-03-29T10:23:58.022Z,9.52
2018-03-29T10:24:58.010Z,9.52
2018-03-29T10:25:58.040Z,9.52
2018-03-29T10:26:58.002Z,9.53
2018-03-29T10:27:57.995Z,9.55
2018-03-29T10:28:58.019Z,9.59
2018-03-29T10:29:58.078Z,9.66
2018-03-29T10:30:58.076Z,9.72
2018-03-29T10:31:57.993Z,9.79
2018-03-29T10:32:58.015Z,9.82
2018-03-29T10:33:58.017Z,9.88
2018-03-29T10:34:57.998Z,9.87
2018-03-29T10:35:57.982Z,9.87
2018-03-29T10:36:57.982Z,9.9
2018-03-29T10:37:58.011Z,9.89
2018-03-29T10:38:58.007Z,9.88
2018-03-29T10:39:58.017Z,9.83
2018-03-29T10:40:58.020Z,9.81
2018-03-29T10:41:57.980Z,9.82
2018-03-29T10:42:58.019Z,9.88
2018-03-29T10:43:58.068Z,9.95
2018-03-29T10:44:58.009Z,10.04
2018-03-29T10:45:58.007Z,10.1
2018-03-29T10:46:58.057Z,10.18
2018-03-29T10:47:58.015Z,10.15
2018-03-29T10:48:58.005Z,10.19
2018-03-29T10:49:58.000Z,10.2
2018-03-29T10:50:58.015Z,10.27
2018-03-29T10:51:58.013Z,10.35
2018-03-29T10:52:58.040Z,10.43
2018-03-29T10:53:58.093Z,10.49
2018-03-29T10:54:57.990Z,10.53
2018-03-29T10:55:57.998Z,10.59
2018-03-29T10:56:58.016Z,10.66
2018-03-29T10:57:58.123Z,10.72
2018-03-29T10:58:58.030Z,10.79
2018-03-29T10:59:58.050Z,10.83
2018-03-29T11:00:58.041Z,10.82
2018-03-29T11:01:58.016Z,10.87
2018-03-29T11:02:58.005Z,10.9
2018-03-29T11:03:58.011Z,10.95
2018-03-29T11:04:58.067Z,10.97
2018-03-29T11:05:58.026Z,10.96
2018-03-29T11:06:58.032Z,10.92
2018-03-29T11:07:58.080Z,10.88
2018-03-29T11:08:58.024Z,10.9
2018-03-29T11:09:58.033Z,10.9
2018-03-29T11:10:57.995Z,10.86
2018-03-29T11:11:58.080Z,10.89
2018-03-29T11:12:58.149Z,10.89
2018-03-29T11:13:58.024Z,10.66
2018-03-29T11:14:58.095Z,10.59
2018-03-29T11:15:58.102Z,10.5
2018-03-29T11:16:58.139Z,10.42
2018-03-29T11:17:58.020Z,10.41
2018-03-29T11:18:58.086Z,10.44
2018-03-29T11:19:58.011Z,10.48
2018-03-29T11:20:58.015Z,10.52
2018-03-29T11:21:58.046Z,10.51
2018-03-29T11:22:58.022Z,10.58
2018-03-29T11:23:58.036Z,10.68
2018-03-29T11:24:58.348Z,10.73
2018-03-29T11:25:58.072Z,10.8
2018-03-29T11:26:58.033Z,10.72
2018-03-29T11:27:58.020Z,10.77
2018-03-29T11:28:58.045Z,10.76
2018-03-29T11:29:58.108Z,10.63
2018-03-29T11:30:58.012Z,10.7
2018-03-29T11:31:58.053Z,10.73
2018-03-29T11:32:58.087Z,10.76
2018-03-29T11:33:58.040Z,10.78
2018-03-29T11:34:58.023Z,10.78
2018-03-29T11:35:58.076Z,10.83
2018-03-29T11:36:58.083Z,10.82
2018-03-29T11:37:58.078Z,10.76
2018-03-29T11:38:58.037Z,10.74
2018-03-29T11:39:58.038Z,10.75
2018-03-29T11:40:58.046Z,10.7
2018-03-29T11:41:58.046Z,10.72
2018-03-29T11:42:58.022Z,10.7
2018-03-29T11:43:58.063Z,10.79
2018-03-29T11:44:58.040Z,10.85
2018-03-29T11:45:58.041Z,10.84
2018-03-29T11:46:58.058Z,10.84
2018-03-29T11:47:58.045Z,10.8
2018-03-29T11:48:58.042Z,10.87
2018-03-29T11:49:58.048Z,10.94
2018-03-29T11:50:58.032Z,10.93
2018-03-29T11:51:58.055Z,10.97
2018-03-29T11:52:58.349Z,11
2018-03-29T11:53:58.009Z,10.87
2018-03-29T11:54:58.021Z,10.89
2018-03-29T11:55:58.085Z,10.89
2018-03-29T11:56:58.054Z,10.9
2018-03-29T11:57:58.039Z,10.87
2018-03-29T11:58:58.059Z,10.9
2018-03-29T11:59:58.104Z,10.89
2018-03-29T12:00:58.042Z,10.86
2018-03-29T12:01:58.111Z,10.85
2018-03-29T12:02:58.081Z,10.76
2018-03-29T12:03:58.072Z,10.78
2018-03-29T12:04:58.068Z,10.72
2018-03-29T12:05:58.198Z,10.68
2018-03-29T12:06:58.049Z,10.59
2018-03-29T12:07:58.038Z,10.58
2018-03-29T12:08:58.106Z,10.61
2018-03-29T12:09:58.061Z,10.62
2018-03-29T12:10:58.110Z,10.66
2018-03-29T12:11:58.027Z,10.74
2018-03-29T12:12:58.086Z,10.79
2018-03-29T12:13:58.048Z,10.81
2018-03-29T12:14:58.056Z,10.82
2018-03-29T12:15:58.080Z,10.75
2018-03-29T12:16:58.087Z,10.79
2018-03-29T12:17:58.064Z,10.81
2018-03-29T12:18:58.142Z,10.85
2018-03-29T12:19:58.079Z,10.84
2018-03-29T12:20:58.114Z,10.78
2018-03-29T12:21:58.059Z,10.83
2018-03-29T12:22:58.051Z,10.78
2018-03-29T12:23:58.096Z,10.77
2018-03-29T12:24:58.064Z,10.83
2018-03-29T12:25:58.047Z,10.87
2018-03-29T12:26:58.101Z,10.89
2018-03-29T12:27:58.072Z,10.91
2018-03-29T12:28:58.082Z,10.94
2018-03-29T12:29:58.072Z,10.92
2018-03-29T12:30:58.088Z,10.97
2018-03-29T12:31:58.137Z,10.97
2018-03-29T12:32:58.063Z,10.94
2018-03-29T12:33:58.046Z,10.91
2018-03-29T12:34:58.150Z,10.91
2018-03-29T12:35:58.077Z,10.89
2018-03-29T12:36:58.055Z,10.9
2018-03-29T12:37:58.129Z,10.87
2018-03-29T12:38:58.061Z,10.87
2018-03-29T12:39:58.102Z,10.76
2018-03-29T12:40:58.073Z,10.63
2018-03-29T12:41:58.059Z,10.67
2018-03-29T12:42:58.061Z,10.66
2018-03-29T12:43:58.041Z,10.65
2018-03-29T12:44:58.984Z,10.58
2018-03-29T12:45:58.068Z,10.61
2018-03-29T12:46:58.497Z,10.56
2018-03-29T12:47:58.067Z,10.61
2018-03-29T12:48:58.077Z,10.66
2018-03-29T12:49:58.100Z,10.68
2018-03-29T12:50:58.082Z,10.73
2018-03-29T12:51:58.087Z,10.79
2018-03-29T12:52:58.084Z,10.86
2018-03-29T12:53:58.095Z,10.86
2018-03-29T12:54:58.084Z,10.87
2018-03-29T12:55:58.064Z,10.92
2018-03-29T12:56:58.072Z,10.97
2018-03-29T12:58:01.203Z,11.06
2018-03-29T12:58:58.753Z,11.17
2018-03-29T12:59:58.953Z,11.28
2018-03-29T13:00:58.082Z,11.31
2018-03-29T13:01:58.117Z,11.3
2018-03-29T13:02:58.090Z,11.19
2018-03-29T13:04:01.320Z,11.14
2018-03-29T13:04:58.099Z,11.16
2018-03-29T13:05:58.476Z,11.14
2018-03-29T13:06:58.072Z,11.14
2018-03-29T13:07:58.098Z,11.09
2018-03-29T13:08:58.063Z,11.14
2018-03-29T13:09:58.114Z,11.14
2018-03-29T13:10:58.120Z,11.09
2018-03-29T13:12:05.245Z,11.09
2018-03-29T13:12:58.077Z,11.1
2018-03-29T13:13:58.085Z,11.12
2018-03-29T13:14:58.107Z,11.08
2018-03-29T13:15:58.072Z,11.04
2018-03-29T13:16:58.993Z,10.95